sensor_id;sensor_type;location;lat;lon;timestamp;temperature;humidity
4643;DHT22;2334;48.710;9.622;2023-09-19T00:00:00;17.50;99.90
4643;DHT22;2334;48.710;9.622;2023-09-19T00:02:27;17.50;99.90
4643;DHT22;2334;48.710;9.622;2023-09-19T00:04:54;17.40;99.90
4643;DHT22;2334;48.710;9.622;2023-09-19T00:07:21;17.40;99.90
4643;DHT22;2334;48.710;9.622;2023-09-19T00:09:48;17.40;99.90
4643;DHT22;2334;48.710;9.622;2023-09-19T00:12:15;17.30;99.90
4643;DHT22;2334;48.710;9.622;2023-09-19T00:14:43;17.40;99.90
4643;DHT22;2334;48.710;9.622;2023-09-19T00:17:11;17.30;99.90
4643;DHT22;2334;48.710;9.622;2023-09-19T00:19:38;17.30;99.90
4643;DHT22;2334;48.710;9.622;2023-09-19T00:22:08;17.30;99.90
4643;DHT22;2334;48.710;9.622;2023-09-19T00:24:35;17.30;99.90
4643;DHT22;2334;48.710;9.622;2023-09-19T00:27:02;17.30;99.90
4643;DHT22;2334;48.710;9.622;2023-09-19T00:29:29;17.30;99.90
4643;DHT22;2334;48.710;9.622;2023-09-19T00:31:57;17.30;99.90
4643;DHT22;2334;48.710;9.622;2023-09-19T00:34:26;17.20;99.90
4643;DHT22;2334;48.710;9.622;2023-09-19T00:36:53;17.20;99.90
4643;DHT22;2334;48.710;9.622;2023-09-19T00:39:20;17.20;99.90
4643;DHT22;2334;48.710;9.622;2023-09-19T00:41:47;17.20;99.90
4643;DHT22;2334;48.710;9.622;2023-09-19T00:44:14;17.30;99.90
4643;DHT22;2334;48.710;9.622;2023-09-19T00:46:43;17.20;99.90
4643;DHT22;2334;48.710;9.622;2023-09-19T00:49:13;17.20;99.90
4643;DHT22;2334;48.710;9.622;2023-09-19T00:51:42;17.10;99.90
4643;DHT22;2334;48.710;9.622;2023-09-19T00:54:13;17.10;99.90
4643;DHT22;2334;48.710;9.622;2023-09-19T00:56:44;17.10;99.90
4643;DHT22;2334;48.710;9.622;2023-09-19T00:59:12;17.10;99.90
4643;DHT22;2334;48.710;9.622;2023-09-19T01:01:39;17.10;99.90
4643;DHT22;2334;48.710;9.622;2023-09-19T01:04:06;17.10;99.90
4643;DHT22;2334;48.710;9.622;2023-09-19T01:06:34;17.10;99.90
4643;DHT22;2334;48.710;9.622;2023-09-19T01:09:04;17.10;99.90
4643;DHT22;2334;48.710;9.622;2023-09-19T01:11:37;17.10;99.90
4643;DHT22;2334;48.710;9.622;2023-09-19T01:14:17;17.10;99.90
4643;DHT22;2334;48.710;9.622;2023-09-19T01:16:50;17.10;99.90
4643;DHT22;2334;48.710;9.622;2023-09-19T01:22:29;17.00;99.90
4643;DHT22;2334;48.710;9.622;2023-09-19T01:25:32;16.90;99.90
4643;DHT22;2334;48.710;9.622;2023-09-19T01:28:20;16.90;99.90
4643;DHT22;2334;48.710;9.622;2023-09-19T01:30:57;16.80;99.90
4643;DHT22;2334;48.710;9.622;2023-09-19T01:33:26;16.80;99.90
4643;DHT22;2334;48.710;9.622;2023-09-19T01:35:53;16.80;99.90
4643;DHT22;2334;48.710;9.622;2023-09-19T01:38:21;16.70;99.90
4643;DHT22;2334;48.710;9.622;2023-09-19T01:40:55;16.70;99.90
4643;DHT22;2334;48.710;9.622;2023-09-19T01:43:29;16.80;99.90
4643;DHT22;2334;48.710;9.622;2023-09-19T01:46:04;16.80;99.90
4643;DHT22;2334;48.710;9.622;2023-09-19T01:48:38;16.90;99.90
4643;DHT22;2334;48.710;9.622;2023-09-19T01:51:09;16.80;99.90
4643;DHT22;2334;48.710;9.622;2023-09-19T01:53:43;16.80;99.90
4643;DHT22;2334;48.710;9.622;2023-09-19T01:56:16;16.80;99.90
4643;DHT22;2334;48.710;9.622;2023-09-19T01:58:50;16.80;99.90
4643;DHT22;2334;48.710;9.622;2023-09-19T02:01:22;16.80;99.90
4643;DHT22;2334;48.710;9.622;2023-09-19T02:03:50;16.80;99.90
4643;DHT22;2334;48.710;9.622;2023-09-19T02:06:18;16.80;99.90
4643;DHT22;2334;48.710;9.622;2023-09-19T02:08:46;16.80;99.90
4643;DHT22;2334;48.710;9.622;2023-09-19T02:11:14;16.80;99.90
4643;DHT22;2334;48.710;9.622;2023-09-19T02:13:41;16.80;99.90
4643;DHT22;2334;48.710;9.622;2023-09-19T02:16:09;16.80;99.90
4643;DHT22;2334;48.710;9.622;2023-09-19T02:18:37;16.70;99.90
4643;DHT22;2334;48.710;9.622;2023-09-19T02:21:04;16.70;99.90
4643;DHT22;2334;48.710;9.622;2023-09-19T02:23:32;16.70;99.90
4643;DHT22;2334;48.710;9.622;2023-09-19T02:25:59;16.70;99.90
4643;DHT22;2334;48.710;9.622;2023-09-19T02:28:26;16.70;99.90
4643;DHT22;2334;48.710;9.622;2023-09-19T02:30:55;16.80;99.90
4643;DHT22;2334;48.710;9.622;2023-09-19T02:33:22;16.80;99.90
4643;DHT22;2334;48.710;9.622;2023-09-19T02:35:54;16.80;99.90
4643;DHT22;2334;48.710;9.622;2023-09-19T02:38:23;16.80;99.90
4643;DHT22;2334;48.710;9.622;2023-09-19T02:40:51;16.90;99.90
4643;DHT22;2334;48.710;9.622;2023-09-19T02:43:18;16.90;99.90
4643;DHT22;2334;48.710;9.622;2023-09-19T02:45:46;16.90;99.90
4643;DHT22;2334;48.710;9.622;2023-09-19T02:48:15;16.90;99.90
4643;DHT22;2334;48.710;9.622;2023-09-19T02:50:42;17.00;99.90
4643;DHT22;2334;48.710;9.622;2023-09-19T02:53:11;17.00;99.90
4643;DHT22;2334;48.710;9.622;2023-09-19T02:55:39;17.00;99.90
4643;DHT22;2334;48.710;9.622;2023-09-19T02:58:07;16.90;99.90
4643;DHT22;2334;48.710;9.622;2023-09-19T03:00:37;16.80;99.90
4643;DHT22;2334;48.710;9.622;2023-09-19T03:03:04;16.80;99.90
4643;DHT22;2334;48.710;9.622;2023-09-19T03:05:34;16.80;99.90
4643;DHT22;2334;48.710;9.622;2023-09-19T03:08:01;16.70;99.90
4643;DHT22;2334;48.710;9.622;2023-09-19T03:10:30;16.70;99.90
4643;DHT22;2334;48.710;9.622;2023-09-19T03:12:57;16.60;99.90
4643;DHT22;2334;48.710;9.622;2023-09-19T03:15:25;16.60;99.90
4643;DHT22;2334;48.710;9.622;2023-09-19T03:17:52;16.70;99.90
4643;DHT22;2334;48.710;9.622;2023-09-19T03:20:19;16.60;99.90
4643;DHT22;2334;48.710;9.622;2023-09-19T03:22:48;16.60;99.90
4643;DHT22;2334;48.710;9.622;2023-09-19T03:25:15;16.60;99.90
4643;DHT22;2334;48.710;9.622;2023-09-19T03:27:44;16.40;99.90
4643;DHT22;2334;48.710;9.622;2023-09-19T03:30:11;16.40;99.90
4643;DHT22;2334;48.710;9.622;2023-09-19T03:32:44;16.50;99.90
4643;DHT22;2334;48.710;9.622;2023-09-19T03:35:11;16.50;99.90
4643;DHT22;2334;48.710;9.622;2023-09-19T03:37:39;16.50;99.90
4643;DHT22;2334;48.710;9.622;2023-09-19T03:40:08;16.40;99.90
4643;DHT22;2334;48.710;9.622;2023-09-19T03:42:38;16.40;99.90
4643;DHT22;2334;48.710;9.622;2023-09-19T03:45:08;16.50;99.90
4643;DHT22;2334;48.710;9.622;2023-09-19T03:47:38;16.50;99.90
4643;DHT22;2334;48.710;9.622;2023-09-19T03:50:05;16.50;99.90
4643;DHT22;2334;48.710;9.622;2023-09-19T03:52:34;16.60;99.90
4643;DHT22;2334;48.710;9.622;2023-09-19T03:55:01;16.60;99.90
4643;DHT22;2334;48.710;9.622;2023-09-19T03:57:30;16.60;99.90
4643;DHT22;2334;48.710;9.622;2023-09-19T03:59:57;16.50;99.90
4643;DHT22;2334;48.710;9.622;2023-09-19T04:02:25;16.50;99.90
4643;DHT22;2334;48.710;9.622;2023-09-19T04:04:58;16.60;99.90
4643;DHT22;2334;48.710;9.622;2023-09-19T04:07:25;16.60;99.90
4643;DHT22;2334;48.710;9.622;2023-09-19T04:09:54;16.50;99.90
4643;DHT22;2334;48.710;9.622;2023-09-19T04:12:21;16.50;99.90
4643;DHT22;2334;48.710;9.622;2023-09-19T04:14:48;16.50;99.90
4643;DHT22;2334;48.710;9.622;2023-09-19T04:17:15;16.50;99.90
4643;DHT22;2334;48.710;9.622;2023-09-19T04:19:45;16.50;99.90
4643;DHT22;2334;48.710;9.622;2023-09-19T04:22:12;16.40;99.90
4643;DHT22;2334;48.710;9.622;2023-09-19T04:24:39;16.50;99.90
4643;DHT22;2334;48.710;9.622;2023-09-19T04:27:06;16.40;99.90
4643;DHT22;2334;48.710;9.622;2023-09-19T04:29:35;16.40;99.90
4643;DHT22;2334;48.710;9.622;2023-09-19T04:32:03;16.40;99.90
4643;DHT22;2334;48.710;9.622;2023-09-19T04:34:31;16.40;99.90
4643;DHT22;2334;48.710;9.622;2023-09-19T04:37:01;16.50;99.90
4643;DHT22;2334;48.710;9.622;2023-09-19T04:39:29;16.40;99.90
4643;DHT22;2334;48.710;9.622;2023-09-19T04:41:56;16.30;99.90
4643;DHT22;2334;48.710;9.622;2023-09-19T04:44:24;16.30;99.90
4643;DHT22;2334;48.710;9.622;2023-09-19T04:46:51;16.30;99.90
4643;DHT22;2334;48.710;9.622;2023-09-19T04:49:17;16.30;99.90
4643;DHT22;2334;48.710;9.622;2023-09-19T04:51:45;16.20;99.90
4643;DHT22;2334;48.710;9.622;2023-09-19T04:54:13;16.20;99.90
4643;DHT22;2334;48.710;9.622;2023-09-19T04:56:41;16.30;99.90
4643;DHT22;2334;48.710;9.622;2023-09-19T04:59:08;16.30;99.90
4643;DHT22;2334;48.710;9.622;2023-09-19T05:01:36;16.20;99.90
4643;DHT22;2334;48.710;9.622;2023-09-19T05:04:03;16.20;99.90
4643;DHT22;2334;48.710;9.622;2023-09-19T05:06:30;16.20;99.90
4643;DHT22;2334;48.710;9.622;2023-09-19T05:09:00;16.30;99.90
4643;DHT22;2334;48.710;9.622;2023-09-19T05:11:32;16.30;99.90
4643;DHT22;2334;48.710;9.622;2023-09-19T05:13:59;16.30;99.90
4643;DHT22;2334;48.710;9.622;2023-09-19T05:16:29;16.30;99.90
4643;DHT22;2334;48.710;9.622;2023-09-19T05:18:57;16.30;99.90
4643;DHT22;2334;48.710;9.622;2023-09-19T05:21:25;16.40;99.90
4643;DHT22;2334;48.710;9.622;2023-09-19T05:23:54;16.40;99.90
4643;DHT22;2334;48.710;9.622;2023-09-19T05:26:21;16.40;99.90
4643;DHT22;2334;48.710;9.622;2023-09-19T05:28:49;16.40;99.90
4643;DHT22;2334;48.710;9.622;2023-09-19T05:31:16;16.40;99.90
4643;DHT22;2334;48.710;9.622;2023-09-19T05:33:43;16.40;99.90
4643;DHT22;2334;48.710;9.622;2023-09-19T05:36:09;16.50;99.90
4643;DHT22;2334;48.710;9.622;2023-09-19T05:38:37;16.50;99.90
4643;DHT22;2334;48.710;9.622;2023-09-19T05:41:06;16.60;99.90
4643;DHT22;2334;48.710;9.622;2023-09-19T05:43:33;16.60;99.90
4643;DHT22;2334;48.710;9.622;2023-09-19T05:46:04;16.70;99.90
4643;DHT22;2334;48.710;9.622;2023-09-19T05:48:31;16.70;99.90
4643;DHT22;2334;48.710;9.622;2023-09-19T05:50:58;16.70;99.90
4643;DHT22;2334;48.710;9.622;2023-09-19T05:53:27;16.70;99.90
4643;DHT22;2334;48.710;9.622;2023-09-19T05:55:54;16.70;99.90
4643;DHT22;2334;48.710;9.622;2023-09-19T05:58:21;16.70;99.90
4643;DHT22;2334;48.710;9.622;2023-09-19T06:00:48;16.70;99.90
4643;DHT22;2334;48.710;9.622;2023-09-19T06:03:16;16.70;99.90
4643;DHT22;2334;48.710;9.622;2023-09-19T06:05:45;16.60;99.90
4643;DHT22;2334;48.710;9.622;2023-09-19T06:08:15;16.50;99.90
4643;DHT22;2334;48.710;9.622;2023-09-19T06:10:42;16.40;99.90
4643;DHT22;2334;48.710;9.622;2023-09-19T06:13:09;16.40;99.90
4643;DHT22;2334;48.710;9.622;2023-09-19T06:15:36;16.30;99.90
4643;DHT22;2334;48.710;9.622;2023-09-19T06:18:03;16.30;99.90
4643;DHT22;2334;48.710;9.622;2023-09-19T06:20:33;16.40;99.90
4643;DHT22;2334;48.710;9.622;2023-09-19T06:22:59;16.40;99.90
4643;DHT22;2334;48.710;9.622;2023-09-19T06:25:27;16.40;99.90
4643;DHT22;2334;48.710;9.622;2023-09-19T06:27:54;16.30;99.90
4643;DHT22;2334;48.710;9.622;2023-09-19T06:30:23;16.30;99.90
4643;DHT22;2334;48.710;9.622;2023-09-19T06:32:55;16.40;99.90
4643;DHT22;2334;48.710;9.622;2023-09-19T06:35:23;16.40;99.90
4643;DHT22;2334;48.710;9.622;2023-09-19T06:37:53;16.40;99.90
4643;DHT22;2334;48.710;9.622;2023-09-19T06:40:19;16.50;99.90
4643;DHT22;2334;48.710;9.622;2023-09-19T06:42:47;16.60;99.90
4643;DHT22;2334;48.710;9.622;2023-09-19T06:45:16;16.60;99.90
4643;DHT22;2334;48.710;9.622;2023-09-19T06:47:44;16.70;99.90
4643;DHT22;2334;48.710;9.622;2023-09-19T06:50:11;16.60;99.90
4643;DHT22;2334;48.710;9.622;2023-09-19T06:52:40;16.50;99.90
4643;DHT22;2334;48.710;9.622;2023-09-19T06:55:09;16.40;99.90
4643;DHT22;2334;48.710;9.622;2023-09-19T06:57:38;16.30;99.90
4643;DHT22;2334;48.710;9.622;2023-09-19T07:00:07;16.20;99.90
4643;DHT22;2334;48.710;9.622;2023-09-19T07:02:40;16.20;99.90
4643;DHT22;2334;48.710;9.622;2023-09-19T07:05:08;16.00;99.90
4643;DHT22;2334;48.710;9.622;2023-09-19T07:07:35;15.90;99.90
4643;DHT22;2334;48.710;9.622;2023-09-19T07:10:01;15.90;99.90
4643;DHT22;2334;48.710;9.622;2023-09-19T07:12:32;15.90;99.90
4643;DHT22;2334;48.710;9.622;2023-09-19T07:14:59;15.80;99.90
4643;DHT22;2334;48.710;9.622;2023-09-19T07:17:26;15.70;99.90
4643;DHT22;2334;48.710;9.622;2023-09-19T07:19:53;15.70;99.90
4643;DHT22;2334;48.710;9.622;2023-09-19T07:22:19;15.70;99.90
4643;DHT22;2334;48.710;9.622;2023-09-19T07:24:46;15.80;99.90
4643;DHT22;2334;48.710;9.622;2023-09-19T07:27:14;15.90;99.90
4643;DHT22;2334;48.710;9.622;2023-09-19T07:29:43;16.00;99.90
4643;DHT22;2334;48.710;9.622;2023-09-19T07:32:10;16.00;99.90
4643;DHT22;2334;48.710;9.622;2023-09-19T07:34:37;16.10;99.90
4643;DHT22;2334;48.710;9.622;2023-09-19T07:37:06;16.20;99.90
4643;DHT22;2334;48.710;9.622;2023-09-19T07:39:33;16.30;99.90
4643;DHT22;2334;48.710;9.622;2023-09-19T07:42:00;16.60;99.90
4643;DHT22;2334;48.710;9.622;2023-09-19T07:44:27;16.60;99.90
4643;DHT22;2334;48.710;9.622;2023-09-19T07:46:55;16.70;99.90
4643;DHT22;2334;48.710;9.622;2023-09-19T07:49:22;16.80;99.90
4643;DHT22;2334;48.710;9.622;2023-09-19T07:51:49;16.80;99.90
4643;DHT22;2334;48.710;9.622;2023-09-19T07:54:18;16.70;99.90
4643;DHT22;2334;48.710;9.622;2023-09-19T07:56:45;16.60;99.90
4643;DHT22;2334;48.710;9.622;2023-09-19T07:59:12;16.70;99.90
4643;DHT22;2334;48.710;9.622;2023-09-19T08:01:39;16.70;99.90
4643;DHT22;2334;48.710;9.622;2023-09-19T08:04:07;16.80;99.90
4643;DHT22;2334;48.710;9.622;2023-09-19T08:06:35;16.80;99.90
4643;DHT22;2334;48.710;9.622;2023-09-19T08:09:03;16.80;99.90
4643;DHT22;2334;48.710;9.622;2023-09-19T08:11:36;17.00;99.90
4643;DHT22;2334;48.710;9.622;2023-09-19T08:14:04;17.10;99.90
4643;DHT22;2334;48.710;9.622;2023-09-19T08:16:34;17.20;99.90
4643;DHT22;2334;48.710;9.622;2023-09-19T08:19:00;17.30;99.90
4643;DHT22;2334;48.710;9.622;2023-09-19T08:21:29;17.50;99.90
4643;DHT22;2334;48.710;9.622;2023-09-19T08:23:55;17.80;99.90
4643;DHT22;2334;48.710;9.622;2023-09-19T08:26:23;18.10;99.90
4643;DHT22;2334;48.710;9.622;2023-09-19T08:28:50;18.30;99.90
4643;DHT22;2334;48.710;9.622;2023-09-19T08:31:18;18.40;99.90
4643;DHT22;2334;48.710;9.622;2023-09-19T08:33:46;18.50;99.90
4643;DHT22;2334;48.710;9.622;2023-09-19T08:36:17;18.80;99.90
4643;DHT22;2334;48.710;9.622;2023-09-19T08:38:45;18.80;99.90
4643;DHT22;2334;48.710;9.622;2023-09-19T08:41:12;18.90;99.90
4643;DHT22;2334;48.710;9.622;2023-09-19T08:43:39;18.60;99.90
4643;DHT22;2334;48.710;9.622;2023-09-19T08:46:09;18.40;99.90
4643;DHT22;2334;48.710;9.622;2023-09-19T08:48:39;18.40;99.90
4643;DHT22;2334;48.710;9.622;2023-09-19T08:51:10;18.20;99.90
4643;DHT22;2334;48.710;9.622;2023-09-19T08:53:42;18.20;99.90
4643;DHT22;2334;48.710;9.622;2023-09-19T08:56:14;18.20;99.90
4643;DHT22;2334;48.710;9.622;2023-09-19T08:58:46;18.20;99.90
4643;DHT22;2334;48.710;9.622;2023-09-19T09:01:15;18.30;99.90
4643;DHT22;2334;48.710;9.622;2023-09-19T09:03:44;18.50;99.90
4643;DHT22;2334;48.710;9.622;2023-09-19T09:06:14;18.60;99.90
4643;DHT22;2334;48.710;9.622;2023-09-19T09:08:42;18.60;99.90
4643;DHT22;2334;48.710;9.622;2023-09-19T09:11:09;18.40;99.90
4643;DHT22;2334;48.710;9.622;2023-09-19T09:13:38;18.40;99.90
4643;DHT22;2334;48.710;9.622;2023-09-19T09:16:07;18.50;99.90
4643;DHT22;2334;48.710;9.622;2023-09-19T09:18:34;18.40;99.90
4643;DHT22;2334;48.710;9.622;2023-09-19T09:21:01;18.30;99.90
4643;DHT22;2334;48.710;9.622;2023-09-19T09:23:30;18.20;99.90
4643;DHT22;2334;48.710;9.622;2023-09-19T09:25:59;18.20;99.90
4643;DHT22;2334;48.710;9.622;2023-09-19T09:28:29;18.40;99.90
4643;DHT22;2334;48.710;9.622;2023-09-19T09:30:58;18.50;99.90
4643;DHT22;2334;48.710;9.622;2023-09-19T09:33:25;18.60;99.90
4643;DHT22;2334;48.710;9.622;2023-09-19T09:35:55;18.60;99.90
4643;DHT22;2334;48.710;9.622;2023-09-19T09:38:24;18.80;99.90
4643;DHT22;2334;48.710;9.622;2023-09-19T09:40:53;18.80;99.90
4643;DHT22;2334;48.710;9.622;2023-09-19T09:43:26;19.30;99.90
4643;DHT22;2334;48.710;9.622;2023-09-19T09:46:09;19.80;99.90
4643;DHT22;2334;48.710;9.622;2023-09-19T09:49:00;20.20;99.90
4643;DHT22;2334;48.710;9.622;2023-09-19T09:51:47;20.20;99.90
4643;DHT22;2334;48.710;9.622;2023-09-19T09:54:23;20.00;99.90
4643;DHT22;2334;48.710;9.622;2023-09-19T09:56:54;20.10;99.90
4643;DHT22;2334;48.710;9.622;2023-09-19T09:59:44;20.00;99.90
4643;DHT22;2334;48.710;9.622;2023-09-19T10:02:13;20.10;99.90
4643;DHT22;2334;48.710;9.622;2023-09-19T10:04:48;20.00;99.90
4643;DHT22;2334;48.710;9.622;2023-09-19T10:07:40;20.00;99.90
4643;DHT22;2334;48.710;9.622;2023-09-19T10:10:13;19.80;99.90
4643;DHT22;2334;48.710;9.622;2023-09-19T10:12:44;19.60;99.90
4643;DHT22;2334;48.710;9.622;2023-09-19T10:15:11;19.80;99.90
4643;DHT22;2334;48.710;9.622;2023-09-19T10:17:44;19.90;99.90
4643;DHT22;2334;48.710;9.622;2023-09-19T10:20:15;20.10;99.90
4643;DHT22;2334;48.710;9.622;2023-09-19T10:23:06;20.40;99.90
4643;DHT22;2334;48.710;9.622;2023-09-19T10:25:37;20.70;99.90
4643;DHT22;2334;48.710;9.622;2023-09-19T10:28:06;20.90;99.90
4643;DHT22;2334;48.710;9.622;2023-09-19T10:30:37;21.10;99.90
4643;DHT22;2334;48.710;9.622;2023-09-19T10:33:06;21.10;99.90
4643;DHT22;2334;48.710;9.622;2023-09-19T10:35:34;21.20;99.90
4643;DHT22;2334;48.710;9.622;2023-09-19T10:38:06;21.50;99.90
4643;DHT22;2334;48.710;9.622;2023-09-19T10:40:35;21.50;99.90
4643;DHT22;2334;48.710;9.622;2023-09-19T10:43:06;21.50;99.90
4643;DHT22;2334;48.710;9.622;2023-09-19T10:45:34;21.50;99.90
4643;DHT22;2334;48.710;9.622;2023-09-19T10:48:06;21.40;99.90
4643;DHT22;2334;48.710;9.622;2023-09-19T10:50:41;21.50;99.90
4643;DHT22;2334;48.710;9.622;2023-09-19T10:53:11;21.60;99.90
4643;DHT22;2334;48.710;9.622;2023-09-19T10:55:39;21.80;99.90
4643;DHT22;2334;48.710;9.622;2023-09-19T10:58:06;22.20;99.90
4643;DHT22;2334;48.710;9.622;2023-09-19T11:00:51;22.10;99.90
4643;DHT22;2334;48.710;9.622;2023-09-19T11:03:21;22.50;99.90
4643;DHT22;2334;48.710;9.622;2023-09-19T11:06:03;22.30;99.90
4643;DHT22;2334;48.710;9.622;2023-09-19T11:08:54;22.10;99.90
4643;DHT22;2334;48.710;9.622;2023-09-19T11:11:45;22.00;99.90
4643;DHT22;2334;48.710;9.622;2023-09-19T11:14:46;21.70;99.90
4643;DHT22;2334;48.710;9.622;2023-09-19T11:17:39;21.80;99.90
4643;DHT22;2334;48.710;9.622;2023-09-19T11:20:26;21.70;99.90
4643;DHT22;2334;48.710;9.622;2023-09-19T11:23:20;22.10;99.90
4643;DHT22;2334;48.710;9.622;2023-09-19T11:25:50;22.30;99.90
4643;DHT22;2334;48.710;9.622;2023-09-19T11:28:35;21.90;99.90
4643;DHT22;2334;48.710;9.622;2023-09-19T11:34:53;22.80;99.90
4643;DHT22;2334;48.710;9.622;2023-09-19T11:38:02;23.20;99.90
4643;DHT22;2334;48.710;9.622;2023-09-19T11:40:33;23.00;99.90
4643;DHT22;2334;48.710;9.622;2023-09-19T11:43:30;23.20;99.90
4643;DHT22;2334;48.710;9.622;2023-09-19T11:46:09;23.30;99.90
4643;DHT22;2334;48.710;9.622;2023-09-19T11:48:38;23.20;99.90
4643;DHT22;2334;48.710;9.622;2023-09-19T11:51:17;23.60;99.90
4643;DHT22;2334;48.710;9.622;2023-09-19T11:53:55;23.40;99.90
4643;DHT22;2334;48.710;9.622;2023-09-19T11:56:25;23.50;99.90
4643;DHT22;2334;48.710;9.622;2023-09-19T11:58:55;23.40;99.90
4643;DHT22;2334;48.710;9.622;2023-09-19T12:01:24;23.20;99.90
4643;DHT22;2334;48.710;9.622;2023-09-19T12:03:54;23.60;99.90
4643;DHT22;2334;48.710;9.622;2023-09-19T12:06:23;23.80;99.90
4643;DHT22;2334;48.710;9.622;2023-09-19T12:08:51;24.20;99.90
4643;DHT22;2334;48.710;9.622;2023-09-19T12:11:21;24.40;99.90
4643;DHT22;2334;48.710;9.622;2023-09-19T12:13:50;24.40;99.90
4643;DHT22;2334;48.710;9.622;2023-09-19T12:16:19;24.10;99.90
4643;DHT22;2334;48.710;9.622;2023-09-19T12:18:49;24.10;99.90
4643;DHT22;2334;48.710;9.622;2023-09-19T12:21:27;23.80;99.90
4643;DHT22;2334;48.710;9.622;2023-09-19T12:24:13;23.30;99.90
4643;DHT22;2334;48.710;9.622;2023-09-19T12:26:46;23.30;99.90
4643;DHT22;2334;48.710;9.622;2023-09-19T12:29:18;23.20;99.90
4643;DHT22;2334;48.710;9.622;2023-09-19T12:31:54;23.40;99.90
4643;DHT22;2334;48.710;9.622;2023-09-19T12:34:28;23.90;99.90
4643;DHT22;2334;48.710;9.622;2023-09-19T12:37:12;24.10;99.90
4643;DHT22;2334;48.710;9.622;2023-09-19T12:39:42;23.70;99.90
4643;DHT22;2334;48.710;9.622;2023-09-19T12:42:14;23.80;99.90
4643;DHT22;2334;48.710;9.622;2023-09-19T12:44:42;24.00;99.90
4643;DHT22;2334;48.710;9.622;2023-09-19T12:47:11;23.90;99.90
4643;DHT22;2334;48.710;9.622;2023-09-19T12:50:06;24.10;99.90
4643;DHT22;2334;48.710;9.622;2023-09-19T12:52:39;24.60;99.90
4643;DHT22;2334;48.710;9.622;2023-09-19T12:55:06;24.30;99.90
4643;DHT22;2334;48.710;9.622;2023-09-19T12:57:36;23.90;99.90
4643;DHT22;2334;48.710;9.622;2023-09-19T13:00:05;23.60;99.90
4643;DHT22;2334;48.710;9.622;2023-09-19T13:02:36;23.40;99.90
4643;DHT22;2334;48.710;9.622;2023-09-19T13:05:03;23.80;99.90
4643;DHT22;2334;48.710;9.622;2023-09-19T13:07:42;23.80;99.90
4643;DHT22;2334;48.710;9.622;2023-09-19T13:10:11;23.90;99.90
4643;DHT22;2334;48.710;9.622;2023-09-19T13:12:44;24.10;99.90
4643;DHT22;2334;48.710;9.622;2023-09-19T13:15:14;24.70;99.90
4643;DHT22;2334;48.710;9.622;2023-09-19T13:17:45;24.30;99.90
4643;DHT22;2334;48.710;9.622;2023-09-19T13:20:22;24.00;99.90
4643;DHT22;2334;48.710;9.622;2023-09-19T13:22:53;24.30;99.90
4643;DHT22;2334;48.710;9.622;2023-09-19T13:25:25;24.50;99.90
4643;DHT22;2334;48.710;9.622;2023-09-19T13:27:57;24.30;99.90
4643;DHT22;2334;48.710;9.622;2023-09-19T13:30:26;24.00;99.90
4643;DHT22;2334;48.710;9.622;2023-09-19T13:33:04;24.10;99.90
4643;DHT22;2334;48.710;9.622;2023-09-19T13:35:33;24.10;99.90
4643;DHT22;2334;48.710;9.622;2023-09-19T13:37:59;24.10;99.90
4643;DHT22;2334;48.710;9.622;2023-09-19T13:40:26;24.00;99.90
4643;DHT22;2334;48.710;9.622;2023-09-19T13:42:57;24.00;99.90
4643;DHT22;2334;48.710;9.622;2023-09-19T13:45:24;24.10;99.90
4643;DHT22;2334;48.710;9.622;2023-09-19T13:47:52;24.20;99.90
4643;DHT22;2334;48.710;9.622;2023-09-19T13:50:20;23.90;99.90
4643;DHT22;2334;48.710;9.622;2023-09-19T13:52:49;24.00;99.90
4643;DHT22;2334;48.710;9.622;2023-09-19T13:55:17;24.10;99.90
4643;DHT22;2334;48.710;9.622;2023-09-19T13:57:45;23.90;99.90
4643;DHT22;2334;48.710;9.622;2023-09-19T14:00:14;23.70;99.90
4643;DHT22;2334;48.710;9.622;2023-09-19T14:02:41;23.80;99.90
4643;DHT22;2334;48.710;9.622;2023-09-19T14:05:10;23.70;99.90
4643;DHT22;2334;48.710;9.622;2023-09-19T14:07:38;23.70;99.90
4643;DHT22;2334;48.710;9.622;2023-09-19T14:10:07;23.60;99.90
4643;DHT22;2334;48.710;9.622;2023-09-19T14:12:36;23.60;99.90
4643;DHT22;2334;48.710;9.622;2023-09-19T14:15:03;23.70;99.90
4643;DHT22;2334;48.710;9.622;2023-09-19T14:17:32;24.00;99.90
4643;DHT22;2334;48.710;9.622;2023-09-19T14:19:58;24.00;99.90
4643;DHT22;2334;48.710;9.622;2023-09-19T14:22:25;23.70;99.90
4643;DHT22;2334;48.710;9.622;2023-09-19T14:24:52;23.70;99.90
4643;DHT22;2334;48.710;9.622;2023-09-19T14:27:20;23.70;99.90
4643;DHT22;2334;48.710;9.622;2023-09-19T14:29:47;23.50;99.90
4643;DHT22;2334;48.710;9.622;2023-09-19T14:32:14;23.40;99.90
4643;DHT22;2334;48.710;9.622;2023-09-19T14:34:43;23.40;99.90
4643;DHT22;2334;48.710;9.622;2023-09-19T14:37:10;23.70;99.90
4643;DHT22;2334;48.710;9.622;2023-09-19T14:39:37;23.80;99.90
4643;DHT22;2334;48.710;9.622;2023-09-19T14:42:05;24.00;99.90
4643;DHT22;2334;48.710;9.622;2023-09-19T14:44:32;24.10;99.90
4643;DHT22;2334;48.710;9.622;2023-09-19T14:47:00;24.10;99.90
4643;DHT22;2334;48.710;9.622;2023-09-19T14:49:26;24.20;99.90
4643;DHT22;2334;48.710;9.622;2023-09-19T14:51:55;24.00;99.90
4643;DHT22;2334;48.710;9.622;2023-09-19T14:54:21;23.90;99.90
4643;DHT22;2334;48.710;9.622;2023-09-19T14:56:54;23.80;99.90
4643;DHT22;2334;48.710;9.622;2023-09-19T14:59:30;24.10;99.90
4643;DHT22;2334;48.710;9.622;2023-09-19T15:01:57;24.10;99.90
4643;DHT22;2334;48.710;9.622;2023-09-19T15:04:23;24.00;99.90
4643;DHT22;2334;48.710;9.622;2023-09-19T15:06:50;24.30;99.90
4643;DHT22;2334;48.710;9.622;2023-09-19T15:09:21;24.10;99.90
4643;DHT22;2334;48.710;9.622;2023-09-19T15:11:51;24.10;99.90
4643;DHT22;2334;48.710;9.622;2023-09-19T15:14:19;24.60;99.90
4643;DHT22;2334;48.710;9.622;2023-09-19T15:16:46;24.90;99.90
4643;DHT22;2334;48.710;9.622;2023-09-19T15:19:13;24.70;99.90
4643;DHT22;2334;48.710;9.622;2023-09-19T15:21:40;25.00;99.90
4643;DHT22;2334;48.710;9.622;2023-09-19T15:24:08;24.80;99.90
4643;DHT22;2334;48.710;9.622;2023-09-19T15:26:37;24.90;99.90
4643;DHT22;2334;48.710;9.622;2023-09-19T15:29:05;25.20;99.90
4643;DHT22;2334;48.710;9.622;2023-09-19T15:31:32;25.20;99.90
4643;DHT22;2334;48.710;9.622;2023-09-19T15:33:59;25.10;99.90
4643;DHT22;2334;48.710;9.622;2023-09-19T15:36:27;24.70;99.90
4643;DHT22;2334;48.710;9.622;2023-09-19T15:38:59;24.40;99.90
4643;DHT22;2334;48.710;9.622;2023-09-19T15:41:27;24.60;99.90
4643;DHT22;2334;48.710;9.622;2023-09-19T15:43:58;25.10;99.90
4643;DHT22;2334;48.710;9.622;2023-09-19T15:46:27;25.40;99.90
4643;DHT22;2334;48.710;9.622;2023-09-19T15:48:55;25.60;99.90
4643;DHT22;2334;48.710;9.622;2023-09-19T15:51:22;25.20;99.90
4643;DHT22;2334;48.710;9.622;2023-09-19T15:53:50;25.00;99.90
4643;DHT22;2334;48.710;9.622;2023-09-19T15:56:17;25.00;99.90
4643;DHT22;2334;48.710;9.622;2023-09-19T15:58:47;25.00;99.90
4643;DHT22;2334;48.710;9.622;2023-09-19T16:01:16;25.00;99.90
4643;DHT22;2334;48.710;9.622;2023-09-19T16:03:45;25.20;99.90
4643;DHT22;2334;48.710;9.622;2023-09-19T16:06:14;25.30;99.90
4643;DHT22;2334;48.710;9.622;2023-09-19T16:08:41;25.10;99.90
4643;DHT22;2334;48.710;9.622;2023-09-19T16:11:09;24.70;99.90
4643;DHT22;2334;48.710;9.622;2023-09-19T16:13:36;24.70;99.90
4643;DHT22;2334;48.710;9.622;2023-09-19T16:16:03;25.00;99.90
4643;DHT22;2334;48.710;9.622;2023-09-19T16:18:31;25.60;99.90
4643;DHT22;2334;48.710;9.622;2023-09-19T16:21:01;25.90;99.90
4643;DHT22;2334;48.710;9.622;2023-09-19T16:23:28;26.40;99.90
4643;DHT22;2334;48.710;9.622;2023-09-19T16:26:01;25.60;99.90